Time;durP1;ratioP1;P1;durP2;ratioP2;P2;SDS_P1;SDS_P2;PMS_P1;PMS_P2;Temp;Humidity;BMP_temperature;BMP_pressure;BME280_temperature;BME280_humidity;BME280_pressure;Samples;Min_cycle;Max_cycle;Signal;HPM_P1;HPM_P2
2022/03/11 00:01:37;;;;;;;;;23.75;22.25;;;;;13.98;45.15;100819.88;5049656;28;45216;-73
2022/03/11 00:04:02;;;;;;;;;24.75;24.00;;;;;13.87;44.88;100808.06;5051815;28;48072;-71
2022/03/11 00:06:28;;;;;;;;;25.50;23.75;;;;;13.93;44.77;100818.00;5036706;28;45520;-72
2022/03/11 00:08:54;;;;;;;;;25.50;21.25;;;;;13.95;44.88;100809.06;5034866;28;46657;-73
2022/03/11 00:11:19;;;;;;;;;26.25;22.50;;;;;13.83;45.05;100782.06;5054874;28;45625;-72
2022/03/11 00:13:44;;;;;;;;;27.25;25.25;;;;;13.93;45.45;100794.72;5048481;28;46014;-73
2022/03/11 00:16:10;;;;;;;;;22.25;20.00;;;;;13.99;45.14;100802.88;5048620;28;45421;-74
2022/03/11 00:18:36;;;;;;;;;27.50;24.25;;;;;13.71;45.48;100774.75;5034397;28;46029;-73
2022/03/11 00:21:01;;;;;;;;;22.50;20.50;;;;;13.73;45.04;100780.16;5034990;28;45599;-73
2022/03/11 00:23:26;;;;;;;;;27.25;23.50;;;;;13.80;45.81;100792.75;5034630;28;45366;-72
2022/03/11 00:25:52;;;;;;;;;24.25;22.75;;;;;13.57;45.47;100785.28;5034998;28;45279;-73
2022/03/11 00:28:17;;;;;;;;;30.25;23.75;;;;;13.68;46.06;100781.84;5035002;28;45393;-74
2022/03/11 00:30:43;;;;;;;;;24.25;20.25;;;;;13.14;45.87;100720.19;5037259;28;45360;-72
2022/03/11 00:33:08;;;;;;;;;24.50;21.00;;;;;13.45;45.30;100743.06;5034856;28;45419;-75
2022/03/11 00:35:34;;;;;;;;;20.75;20.50;;;;;13.70;45.68;100778.31;5033590;28;45285;-73
2022/03/11 00:37:59;;;;;;;;;22.75;22.25;;;;;13.78;45.38;100778.44;5046490;28;46075;-74
2022/03/11 00:40:25;;;;;;;;;28.25;20.00;;;;;13.72;45.71;100778.34;5045273;28;45452;-74
2022/03/11 00:42:50;;;;;;;;;32.00;19.50;;;;;13.69;46.17;100772.91;5034741;28;45272;-72
2022/03/11 00:45:16;;;;;;;;;28.50;24.75;;;;;13.58;45.98;100781.72;5037390;28;45312;-72
2022/03/11 00:47:41;;;;;;;;;20.75;20.75;;;;;13.51;45.62;100768.19;5035615;28;45918;-74
2022/03/11 00:50:07;;;;;;;;;31.50;22.00;;;;;13.43;46.55;100762.72;5034095;28;45443;-73
2022/03/11 00:52:32;;;;;;;;;19.25;18.00;;;;;13.35;45.83;100745.59;5039178;28;45453;-73
2022/03/11 00:54:57;;;;;;;;;23.75;18.75;;;;;13.44;46.13;100754.66;5034635;28;45473;-74
2022/03/11 00:57:23;;;;;;;;;22.75;20.00;;;;;13.45;46.12;100756.47;5045838;28;48549;-74
2022/03/11 00:59:48;;;;;;;;;31.50;26.75;;;;;13.26;47.16;100746.31;5047498;28;45445;-71
2022/03/11 01:02:13;;;;;;;;;20.00;17.50;;;;;13.43;46.51;100755.56;5045216;28;45450;-72
2022/03/11 01:04:39;;;;;;;;;23.50;17.50;;;;;13.49;45.89;100751.16;5039523;28;46412;-71
2022/03/11 01:07:04;;;;;;;;;26.00;21.50;;;;;13.38;46.54;100713.41;5052432;28;46102;-72
2022/03/11 01:09:30;;;;;;;;;26.25;18.75;;;;;13.44;46.27;100716.19;5033931;28;45432;-72
2022/03/11 01:11:55;;;;;;;;;24.75;19.00;;;;;13.54;46.44;100723.50;5045933;28;45434;-73
2022/03/11 01:14:21;;;;;;;;;19.25;18.25;;;;;13.53;46.72;100740.50;5033997;28;45548;-72
2022/03/11 01:16:46;;;;;;;;;20.75;19.75;;;;;13.45;46.64;100737.69;5037455;28;45964;-72
2022/03/11 01:19:11;;;;;;;;;20.00;19.25;;;;;13.48;46.20;100743.97;5034005;28;45705;-73
2022/03/11 01:21:37;;;;;;;;;21.25;20.75;;;;;13.47;46.84;100734.13;5034166;28;45656;-73
2022/03/11 01:24:02;;;;;;;;;23.50;21.50;;;;;13.32;46.48;100710.63;5034366;28;45497;-72
2022/03/11 01:26:28;;;;;;;;;20.75;15.50;;;;;13.49;46.06;100737.75;5040875;28;45817;-73
2022/03/11 01:28:53;;;;;;;;;18.50;17.75;;;;;13.43;46.61;100727.84;5033824;28;45369;-72
2022/03/11 01:31:19;;;;;;;;;22.00;19.50;;;;;13.39;47.04;100718.81;5040132;28;45307;-73
2022/03/11 01:33:45;;;;;;;;;22.50;20.00;;;;;13.23;46.70;100690.84;5034047;28;45402;-72
2022/03/11 01:36:13;;;;;;;;;26.75;21.50;;;;;13.50;46.67;100723.44;5036846;28;46070;-73
2022/03/11 01:38:39;;;;;;;;;16.00;16.00;;;;;13.31;47.08;100688.25;5037495;28;45752;-74
2022/03/11 01:41:05;;;;;;;;;21.25;19.75;;;;;13.57;45.81;100718.16;5037544;28;45307;-72
2022/03/11 01:43:30;;;;;;;;;23.50;19.75;;;;;13.24;46.76;100692.63;5034949;28;45575;-71
2022/03/11 01:45:59;;;;;;;;;22.25;19.50;;;;;13.39;46.64;100718.81;5034968;28;45715;-73
2022/03/11 01:48:25;;;;;;;;;22.75;19.50;;;;;13.38;46.97;100711.66;5051211;28;45395;-71
2022/03/11 01:50:51;;;;;;;;;28.50;23.25;;;;;13.18;46.73;100673.78;5037542;28;45440;-70
2022/03/11 01:53:17;;;;;;;;;21.25;18.50;;;;;13.42;46.40;100696.50;5040655;28;45322;-73
2022/03/11 01:55:42;;;;;;;;;25.00;19.75;;;;;13.33;46.59;100677.56;5043746;28;46319;-73
2022/03/11 01:58:09;;;;;;;;;16.75;16.75;;;;;13.50;47.04;100699.28;5052272;28;45456;-73
2022/03/11 02:00:38;;;;;;;;;22.25;19.25;;;;;13.14;46.18;100644.19;5059655;28;45368;-73
2022/03/11 02:03:04;;;;;;;;;20.00;18.25;;;;;13.32;46.58;100686.50;5037188;28;45722;-72
2022/03/11 02:05:30;;;;;;;;;16.25;14.50;;;;;13.16;47.65;100680.00;5036732;28;45486;-74
2022/03/11 02:07:58;;;;;;;;;19.00;17.25;;;;;13.19;46.86;100688.09;5036630;28;45580;-73
2022/03/11 02:10:24;;;;;;;;;24.25;20.25;;;;;13.20;46.76;100672.00;5036794;28;45425;-73
2022/03/11 02:12:49;;;;;;;;;21.75;20.75;;;;;13.15;46.26;100667.44;5036816;28;45372;-72
2022/03/11 02:15:15;;;;;;;;;24.50;20.25;;;;;13.20;47.04;100690.78;5035071;28;46278;-74
2022/03/11 02:17:40;;;;;;;;;26.25;21.25;;;;;12.61;47.84;100621.06;5036869;28;47523;-71
2022/03/11 02:20:06;;;;;;;;;25.50;19.00;;;;;13.07;47.61;100691.50;5052258;28;45755;-73
2022/03/11 02:22:36;;;;;;;;;22.00;21.25;;;;;13.11;48.12;100696.00;5048019;28;45512;-72
2022/03/11 02:25:04;;;;;;;;;21.25;18.50;;;;;13.21;47.44;100695.25;5055548;28;45445;-72
2022/03/11 02:27:35;;;;;;;;;21.25;18.25;;;;;13.00;47.44;100679.78;5054650;28;45428;-71
2022/03/11 02:30:00;;;;;;;;;21.50;19.00;;;;;13.14;47.95;100684.44;5037471;28;45536;-73
2022/03/11 02:32:26;;;;;;;;;18.75;17.75;;;;;12.97;47.91;100682.41;5041013;28;45295;-71
2022/03/11 02:34:51;;;;;;;;;24.25;22.25;;;;;12.97;49.01;100687.75;5048735;28;45421;-72
2022/03/11 02:37:16;;;;;;;;;21.75;19.25;;;;;13.00;47.48;100685.13;5039716;28;45470;-73
2022/03/11 02:39:42;;;;;;;;;26.00;22.25;;;;;12.64;48.66;100624.69;5040032;28;45709;-73
2022/03/11 02:42:07;;;;;;;;;26.25;23.00;;;;;12.80;48.06;100632.97;5037540;28;45349;-71
2022/03/11 02:44:32;;;;;;;;;21.50;17.25;;;;;13.03;48.16;100678.91;5036281;28;46194;-72
2022/03/11 02:47:02;;;;;;;;;22.25;20.00;;;;;13.01;48.58;100672.63;5036230;28;45500;-72
2022/03/11 02:49:27;;;;;;;;;23.25;20.50;;;;;12.75;48.25;100615.91;5036999;28;45295;-71
2022/03/11 02:51:54;;;;;;;;;17.25;15.00;;;;;13.02;48.49;100663.69;5036630;28;45453;-72
2022/03/11 02:54:19;;;;;;;;;18.25;16.25;;;;;12.98;48.05;100661.84;5036612;28;45326;-73
2022/03/11 02:56:45;;;;;;;;;19.00;19.00;;;;;12.65;48.36;100604.13;5035987;28;45552;-73
2022/03/11 02:59:10;;;;;;;;;24.25;21.50;;;;;12.93;48.25;100663.56;5035142;28;45612;-71
2022/03/11 03:01:35;;;;;;;;;20.50;17.25;;;;;12.83;48.89;100666.06;5038865;28;45361;-72
2022/03/11 03:04:00;;;;;;;;;28.00;20.75;;;;;12.70;49.63;100642.63;5053360;28;46020;-72
2022/03/11 03:06:26;;;;;;;;;22.00;19.00;;;;;12.71;49.12;100655.16;5036132;28;45486;-72
2022/03/11 03:08:51;;;;;;;;;24.00;20.00;;;;;12.50;49.45;100613.72;5056005;28;45614;-71
2022/03/11 03:11:16;;;;;;;;;22.50;20.50;;;;;12.72;50.21;100651.63;5054829;28;45421;-73
2022/03/11 03:13:42;;;;;;;;;25.75;17.50;;;;;12.39;49.78;100593.94;5049172;28;45530;-72
2022/03/11 03:16:07;;;;;;;;;20.25;16.00;;;;;12.64;50.45;100645.25;5037451;28;45594;-74
2022/03/11 03:18:33;;;;;;;;;20.00;15.25;;;;;12.56;49.86;100647.78;5049761;28;46143;-72
2022/03/11 03:20:58;;;;;;;;;22.75;19.50;;;;;12.29;50.33;100603.59;5036235;28;45410;-72
2022/03/11 03:23:25;;;;;;;;;20.75;18.25;;;;;12.30;50.32;100591.97;5035522;28;46143;-71
2022/03/11 03:25:51;;;;;;;;;24.50;21.25;;;;;12.23;50.50;100582.03;5037743;28;45465;-71
2022/03/11 03:28:16;;;;;;;;;14.25;13.00;;;;;12.36;50.82;100615.31;5037979;28;45476;-72
2022/03/11 03:30:42;;;;;;;;;23.75;21.00;;;;;12.37;50.76;100614.41;5035988;28;45391;-70
2022/03/11 03:33:07;;;;;;;;;21.00;19.25;;;;;12.32;50.71;100600.03;5035546;28;53341;-71
2022/03/11 03:35:33;;;;;;;;;24.25;19.50;;;;;12.42;50.46;100615.38;5036691;28;45286;-71
2022/03/11 03:37:59;;;;;;;;;23.25;17.75;;;;;12.34;50.73;100604.56;5043035;28;45598;-71
2022/03/11 03:40:24;;;;;;;;;21.25;19.00;;;;;12.12;51.43;100600.59;5036065;28;45628;-71
2022/03/11 03:42:50;;;;;;;;;26.75;19.75;;;;;12.13;51.56;100612.22;5042195;28;46197;-72
2022/03/11 03:45:15;;;;;;;;;21.00;16.50;;;;;11.90;51.00;100567.16;5035559;28;45398;-70
2022/03/11 03:47:41;;;;;;;;;19.50;15.75;;;;;12.14;51.48;100606.91;5035356;28;45884;-72
2022/03/11 03:50:06;;;;;;;;;20.75;18.75;;;;;12.13;51.58;100607.75;5039588;28;45425;-71
2022/03/11 03:52:33;;;;;;;;;28.50;20.75;;;;;12.13;51.33;100604.19;5035164;28;45411;-70
2022/03/11 03:54:59;;;;;;;;;14.50;10.00;;;;;12.08;51.88;100587.16;5035954;28;45509;-71
2022/03/11 03:57:26;;;;;;;;;18.25;14.50;;;;;12.28;51.73;100601.78;5035189;28;45388;-72
2022/03/11 03:59:52;;;;;;;;;22.00;19.75;;;;;12.10;51.90;100561.28;5048852;28;45426;-73
2022/03/11 04:02:17;;;;;;;;;22.50;18.75;;;;;12.30;51.38;100594.66;5054886;28;45863;-71
2022/03/11 04:04:43;;;;;;;;;19.50;17.50;;;;;12.09;52.32;100581.81;5054241;28;45580;-71
2022/03/11 04:07:08;;;;;;;;;28.00;25.75;;;;;11.98;52.61;100594.09;5050901;28;45419;-72
2022/03/11 04:09:34;;;;;;;;;21.50;18.00;;;;;11.92;52.61;100594.00;5035030;28;45306;-72
2022/03/11 04:11:59;;;;;;;;;22.00;19.50;;;;;11.81;53.27;100588.38;5048454;28;47375;-73
2022/03/11 04:14:25;;;;;;;;;17.75;16.75;;;;;11.72;52.93;100569.50;5048118;28;45359;-72
2022/03/11 04:16:50;;;;;;;;;19.50;17.50;;;;;11.61;53.20;100556.81;5054045;28;45456;-74
2022/03/11 04:19:16;;;;;;;;;17.25;16.50;;;;;11.89;52.80;100580.50;5053682;28;45388;-72
2022/03/11 04:21:41;;;;;;;;;16.00;14.00;;;;;11.91;53.04;100585.06;5054170;28;46911;-72
2022/03/11 04:24:13;;;;;;;;;18.00;16.75;;;;;11.71;53.30;100549.84;5052708;28;45458;-71
2022/03/11 04:26:40;;;;;;;;;20.50;15.75;;;;;11.84;52.90;100580.41;5052208;27;45418;-71
2022/03/11 04:29:05;;;;;;;;;17.25;17.00;;;;;11.81;53.36;100575.00;5035250;28;45546;-73
2022/03/11 04:31:31;;;;;;;;;19.50;16.00;;;;;11.71;53.35;100551.63;5034479;28;45991;-73
2022/03/11 04:33:57;;;;;;;;;17.00;16.00;;;;;11.66;53.70;100564.91;5034714;28;45624;-72
2022/03/11 04:36:23;;;;;;;;;20.00;19.00;;;;;11.61;53.43;100551.47;5034967;28;45413;-73
2022/03/11 04:38:48;;;;;;;;;14.50;13.75;;;;;11.84;53.99;100587.56;5043394;28;45323;-70
2022/03/11 04:41:13;;;;;;;;;16.25;15.25;;;;;11.77;53.36;100579.41;5044236;28;45430;-72
2022/03/11 04:43:39;;;;;;;;;16.25;14.50;;;;;11.50;53.94;100536.06;5039968;28;45374;-70
2022/03/11 04:46:04;;;;;;;;;15.75;14.50;;;;;11.51;53.79;100544.13;5033294;28;45283;-71
2022/03/11 04:48:31;;;;;;;;;17.75;11.00;;;;;11.57;53.75;100549.59;5034837;28;45248;-73
2022/03/11 04:50:56;;;;;;;;;15.75;13.75;;;;;11.77;53.44;100592.78;5035974;28;45590;-74
2022/03/11 04:53:22;;;;;;;;;12.75;12.75;;;;;11.53;53.96;100553.09;5034840;28;45540;-71
2022/03/11 04:55:47;;;;;;;;;16.50;15.25;;;;;11.60;54.26;100581.75;5036991;28;45409;-73
2022/03/11 04:58:12;;;;;;;;;16.00;15.00;;;;;11.53;54.50;100568.22;5034997;28;45703;-73
2022/03/11 05:00:38;;;;;;;;;16.50;13.00;;;;;11.54;54.62;100572.72;5036320;28;46226;-71
2022/03/11 05:03:03;;;;;;;;;14.50;13.00;;;;;11.55;54.66;100567.41;5037483;28;45357;-72
2022/03/11 05:05:29;;;;;;;;;16.75;15.50;;;;;11.42;54.60;100549.31;5035484;28;45232;-71
2022/03/11 05:07:55;;;;;;;;;15.25;11.50;;;;;11.58;54.58;100572.81;5036690;27;45333;-71
2022/03/11 05:10:20;;;;;;;;;13.00;12.00;;;;;11.61;54.50;100582.66;5051612;28;47060;-71
2022/03/11 05:12:46;;;;;;;;;13.00;10.75;;;;;11.67;54.36;100571.19;5053396;28;45621;-73
2022/03/11 05:15:11;;;;;;;;;19.25;18.25;;;;;11.59;54.57;100573.72;5053272;28;45599;-73
2022/03/11 05:17:37;;;;;;;;;20.00;14.25;;;;;11.48;55.00;100560.09;5053951;28;45375;-70
2022/03/11 05:20:03;;;;;;;;;15.75;15.25;;;;;11.28;54.53;100521.38;5039697;27;46270;-73
2022/03/11 05:22:30;;;;;;;;;12.25;12.25;;;;;11.51;55.38;100562.84;5036782;28;45484;-71
2022/03/11 05:24:55;;;;;;;;;14.00;11.25;;;;;11.21;55.36;100513.22;5037908;28;45645;-71
2022/03/11 05:27:20;;;;;;;;;9.50;9.50;;;;;11.47;55.48;100544.94;5037781;28;45501;-72
2022/03/11 05:29:46;;;;;;;;;10.50;10.50;;;;;11.00;54.95;100470.03;5037112;28;45568;-73
2022/03/11 05:32:13;;;;;;;;;15.25;14.00;;;;;11.41;55.75;100556.41;5050525;28;45480;-72
2022/03/11 05:34:39;;;;;;;;;16.25;11.00;;;;;11.41;54.94;100553.72;5057402;28;45886;-75
2022/03/11 05:37:05;;;;;;;;;14.25;12.25;;;;;11.46;55.48;100551.16;5057108;28;45527;-73
2022/03/11 05:39:32;;;;;;;;;9.00;9.00;;;;;11.40;55.04;100534.97;5072322;28;46288;-74
2022/03/11 05:41:57;;;;;;;;;13.25;8.25;;;;;11.47;54.92;100536.94;5058895;28;45387;-72
2022/03/11 05:44:23;;;;;;;;;12.25;10.00;;;;;11.47;54.57;100519.97;5052594;27;45460;-72
2022/03/11 05:46:49;;;;;;;;;13.25;10.00;;;;;11.46;55.01;100519.06;5037704;28;45531;-71
2022/03/11 05:49:14;;;;;;;;;13.25;12.75;;;;;11.59;54.82;100538.94;5048910;28;46925;-73
2022/03/11 05:51:40;;;;;;;;;14.50;14.50;;;;;11.59;54.78;100526.44;5056709;28;45843;-74
2022/03/11 05:54:05;;;;;;;;;12.50;9.25;;;;;11.47;55.17;100528.91;5057028;28;45396;-72
2022/03/11 05:56:31;;;;;;;;;14.00;12.75;;;;;11.42;55.17;100538.59;5056983;28;45303;-72
2022/03/11 05:58:57;;;;;;;;;10.50;9.25;;;;;11.34;55.33;100530.44;5045635;28;45326;-72
2022/03/11 06:01:23;;;;;;;;;12.00;10.75;;;;;11.17;55.72;100515.81;5038112;28;45587;-73
2022/03/11 06:03:48;;;;;;;;;9.00;8.00;;;;;11.29;55.74;100544.59;5037349;28;45681;-72
2022/03/11 06:06:14;;;;;;;;;11.25;9.75;;;;;11.21;55.88;100537.28;5040185;28;45514;-71
2022/03/11 06:08:40;;;;;;;;;14.25;13.75;;;;;11.23;55.51;100531.97;5039172;28;46334;-73
2022/03/11 06:11:06;;;;;;;;;10.50;10.25;;;;;11.32;55.71;100531.25;5055003;28;45669;-72
2022/03/11 06:13:32;;;;;;;;;12.50;12.25;;;;;11.25;55.97;100539.19;5042706;28;45569;-71
2022/03/11 06:15:57;;;;;;;;;9.50;9.50;;;;;11.14;56.01;100546.06;5040745;28;45473;-74
2022/03/11 06:18:22;;;;;;;;;14.75;13.00;;;;;11.15;56.28;100547.88;5042339;28;46610;-71
2022/03/11 06:20:48;;;;;;;;;9.25;8.50;;;;;11.20;56.31;100534.59;5036425;28;45537;-70
2022/03/11 06:23:14;;;;;;;;;12.00;8.50;;;;;11.11;55.93;100495.22;5036383;28;45492;-70
2022/03/11 06:25:39;;;;;;;;;13.25;9.75;;;;;11.24;56.06;100517.75;5044377;28;45544;-72
2022/03/11 06:28:05;;;;;;;;;12.50;12.00;;;;;11.13;55.84;100485.44;5038707;28;45512;-72
2022/03/11 06:30:30;;;;;;;;;13.25;11.25;;;;;11.19;56.20;100496.25;5040124;28;45401;-72
2022/03/11 06:32:56;;;;;;;;;12.75;12.75;;;;;10.96;55.96;100446.78;5045006;28;45427;-72
2022/03/11 06:35:21;;;;;;;;;16.25;15.00;;;;;11.43;55.49;100519.91;5044765;28;45420;-72
2022/03/11 06:37:50;;;;;;;;;16.50;14.50;;;;;11.45;55.41;100527.97;5054128;28;45995;-72
2022/03/11 06:40:16;;;;;;;;;11.25;10.25;;;;;11.40;55.62;100522.53;5039921;28;45352;-72
2022/03/11 06:42:45;;;;;;;;;10.50;10.50;;;;;11.37;55.67;100522.47;5035964;28;45358;-72
2022/03/11 06:45:13;;;;;;;;;13.50;8.75;;;;;11.38;55.97;100524.28;5044160;28;45697;-72
2022/03/11 06:47:40;;;;;;;;;18.00;12.00;;;;;11.21;56.22;100497.19;5055521;28;45984;-72
2022/03/11 06:50:07;;;;;;;;;10.50;10.25;;;;;11.23;56.10;100498.09;5061727;28;45438;-71
2022/03/11 06:52:32;;;;;;;;;10.00;10.00;;;;;11.27;55.82;100493.75;5060809;28;45231;-70
2022/03/11 06:54:58;;;;;;;;;11.50;9.00;;;;;11.41;55.96;100515.41;5045907;28;45421;-70
2022/03/11 06:57:23;;;;;;;;;13.00;8.50;;;;;11.24;55.99;100481.19;5050376;28;46292;-71
2022/03/11 06:59:50;;;;;;;;;9.25;3.50;;;;;11.47;55.71;100517.31;5050189;28;47682;-72
2022/03/11 07:02:16;;;;;;;;;7.25;7.25;;;;;11.47;55.98;100510.16;5055043;28;45467;-70
2022/03/11 07:04:42;;;;;;;;;11.25;8.75;;;;;11.51;55.65;100511.13;5055339;28;45650;-71
2022/03/11 07:07:07;;;;;;;;;11.50;9.25;;;;;11.55;55.63;100512.97;5056073;28;46138;-73
2022/03/11 07:09:33;;;;;;;;;11.00;11.00;;;;;11.47;56.02;100512.84;5052110;28;45457;-70
2022/03/11 07:12:01;;;;;;;;;8.00;7.00;;;;;11.31;55.43;100490.25;5051284;28;45355;-71
2022/03/11 07:14:36;;;;;;;;;8.50;5.25;;;;;11.31;55.84;100500.06;5043527;28;45362;-71
2022/03/11 07:17:03;;;;;;;;;10.75;8.00;;;;;11.14;55.61;100476.56;5044598;28;45346;-73
2022/03/11 07:19:28;;;;;;;;;9.00;7.00;;;;;11.15;56.32;100481.03;5045918;28;45513;-71
2022/03/11 07:21:54;;;;;;;;;9.00;8.50;;;;;11.30;55.54;100491.13;5040971;28;45841;-72
2022/03/11 07:24:20;;;;;;;;;7.00;7.00;;;;;11.29;56.02;100488.44;5069373;28;45051;-73
2022/03/11 07:26:45;;;;;;;;;10.75;8.00;;;;;11.38;56.21;100501.97;5064785;28;45225;-72
2022/03/11 07:29:11;;;;;;;;;7.50;7.00;;;;;11.38;56.13;100500.22;5064335;28;45333;-73
2022/03/11 07:31:36;;;;;;;;;55.50;40.50;;;;;11.35;56.38;100496.53;5055971;28;45486;-73
2022/03/11 07:34:02;;;;;;;;;11.75;7.50;;;;;11.29;55.49;100473.28;5055537;28;45329;-73
2022/03/11 07:36:27;;;;;;;;;9.00;6.00;;;;;11.30;56.20;100482.19;5054997;28;46155;-72
2022/03/11 07:38:53;;;;;;;;;7.75;7.75;;;;;11.39;55.93;100495.75;5054266;28;45375;-74
2022/03/11 07:41:20;;;;;;;;;6.25;6.00;;;;;11.39;56.30;100490.41;5052873;28;45513;-73
2022/03/11 07:43:46;;;;;;;;;13.25;8.25;;;;;11.07;56.32;100443.44;5054120;28;46302;-74
2022/03/11 07:46:13;;;;;;;;;10.75;6.00;;;;;11.30;56.01;100480.44;5045397;28;46032;-72
2022/03/11 07:48:39;;;;;;;;;5.00;4.50;;;;;11.23;56.21;100446.41;5034686;28;45450;-74
2022/03/11 07:51:05;;;;;;;;;6.75;6.00;;;;;11.51;55.20;100482.59;5035223;28;45540;-75
2022/03/11 07:53:31;;;;;;;;;8.75;7.75;;;;;11.38;55.21;100441.38;5034719;28;45655;-74
2022/03/11 07:55:56;;;;;;;;;9.25;9.25;;;;;11.66;55.36;100481.06;5034426;28;46152;-74
2022/03/11 07:58:21;;;;;;;;;9.00;8.00;;;;;11.50;55.39;100440.69;5034801;28;45390;-73
2022/03/11 08:00:48;;;;;;;;;7.50;6.75;;;;;11.75;54.78;100476.78;5034227;28;45412;-72
2022/03/11 08:03:15;;;;;;;;;12.00;8.50;;;;;11.68;54.97;100445.44;5034728;28;45567;-73
2022/03/11 08:05:40;;;;;;;;;11.50;10.50;;;;;11.83;54.06;100463.53;5034569;28;45444;-74
2022/03/11 08:08:06;;;;;;;;;8.00;8.00;;;;;11.95;54.45;100461.06;5034381;28;45334;-74
2022/03/11 08:10:33;;;;;;;;;12.50;11.50;;;;;11.82;54.24;100445.66;5034993;28;45426;-73
2022/03/11 08:13:00;;;;;;;;;21.00;19.25;;;;;11.72;54.19;100441.03;5035096;28;45492;-74
2022/03/11 08:15:25;;;;;;;;;9.50;9.50;;;;;11.49;53.89;100398.72;5034872;28;45962;-74
2022/03/11 08:17:51;;;;;;;;;10.50;10.50;;;;;12.00;54.37;100468.31;5034966;28;45465;-73
2022/03/11 08:20:18;;;;;;;;;8.00;5.75;;;;;11.89;54.37;100441.31;5035032;28;45480;-74
2022/03/11 08:22:50;;;;;;;;;13.00;10.50;;;;;12.01;54.17;100454.00;5035211;28;45278;-75
2022/03/11 08:25:15;;;;;;;;;14.75;14.25;;;;;12.07;54.17;100456.78;5033398;28;46293;-74
2022/03/11 08:27:41;;;;;;;;;8.75;8.75;;;;;12.12;53.16;100453.28;5033338;28;45551;-73
2022/03/11 08:30:08;;;;;;;;;10.50;8.00;;;;;11.59;53.63;100368.56;5034665;28;45476;-74
2022/03/11 08:32:34;;;;;;;;;11.75;8.25;;;;;11.96;53.75;100446.81;5034345;28;45414;-74
2022/03/11 08:35:01;;;;;;;;;8.25;8.00;;;;;12.11;53.83;100443.47;5033973;28;47402;-73
2022/03/11 08:37:27;;;;;;;;;12.00;10.75;;;;;12.25;53.38;100443.69;5033895;28;45347;-73
2022/03/11 08:39:52;;;;;;;;;17.00;12.25;;;;;12.33;53.56;100438.44;5034348;28;45398;-72
2022/03/11 08:42:18;;;;;;;;;7.00;7.00;;;;;12.38;52.57;100438.50;5035136;28;45508;-74
2022/03/11 08:44:43;;;;;;;;;10.00;9.75;;;;;12.52;52.64;100421.75;5034182;28;45503;-73
2022/03/11 08:47:09;;;;;;;;;13.00;10.00;;;;;12.72;52.04;100427.34;5034298;28;45562;-72
2022/03/11 08:49:34;;;;;;;;;10.25;9.50;;;;;12.81;51.55;100418.50;5034697;28;45590;-73
2022/03/11 08:52:00;;;;;;;;;9.75;7.50;;;;;12.85;51.67;100420.38;5034247;28;45456;-72
2022/03/11 08:54:25;;;;;;;;;10.50;6.00;;;;;12.91;51.36;100430.25;5033705;28;45465;-74
2022/03/11 08:56:53;;;;;;;;;6.25;5.75;;;;;12.79;51.09;100411.34;5032559;28;45380;-72
2022/03/11 08:59:18;;;;;;;;;9.25;6.25;;;;;12.76;51.45;100414.00;5034032;28;45295;-73
2022/03/11 09:01:44;;;;;;;;;7.00;5.75;;;;;12.53;51.19;100380.66;5033978;28;45418;-72
2022/03/11 09:04:09;;;;;;;;;4.50;4.50;;;;;12.90;50.95;100417.72;5033612;28;45469;-72
2022/03/11 09:06:34;;;;;;;;;11.25;8.25;;;;;13.11;50.63;100416.16;5033976;28;45569;-73
2022/03/11 09:09:00;;;;;;;;;10.00;8.00;;;;;13.24;50.39;100420.78;5042963;28;45403;-73
2022/03/11 09:11:25;;;;;;;;;26.00;22.50;;;;;13.22;50.64;100409.13;5033917;28;45429;-73
2022/03/11 09:13:51;;;;;;;;;10.00;6.50;;;;;13.22;49.62;100390.34;5033320;28;46495;-73
2022/03/11 09:16:17;;;;;;;;;12.25;12.25;;;;;13.49;50.24;100403.16;5033799;28;45326;-72
2022/03/11 09:18:43;;;;;;;;;12.25;9.25;;;;;13.60;49.52;100404.13;5034254;28;45422;-72
2022/03/11 09:21:08;;;;;;;;;9.50;8.50;;;;;13.70;49.11;100402.44;5039857;28;45386;-73
2022/03/11 09:23:34;;;;;;;;;6.75;6.25;;;;;13.33;49.19;100364.56;5053869;28;46145;-72
2022/03/11 09:25:59;;;;;;;;;7.75;7.75;;;;;12.89;49.81;100292.59;5042167;28;45626;-73
2022/03/11 09:28:25;;;;;;;;;5.75;4.00;;;;;13.59;49.61;100396.06;5034133;28;45206;-71
2022/03/11 09:30:50;;;;;;;;;7.50;7.00;;;;;13.30;49.46;100334.06;5033976;28;45650;-73
2022/03/11 09:33:16;;;;;;;;;10.00;8.25;;;;;13.73;48.65;100388.16;5033317;28;46468;-72
2022/03/11 09:35:42;;;;;;;;;8.00;6.50;;;;;13.82;49.03;100385.50;5033200;28;45500;-73
2022/03/11 09:38:07;;;;;;;;;12.75;6.00;;;;;13.75;48.82;100368.47;5033081;28;45437;-72
2022/03/11 09:40:33;;;;;;;;;9.25;8.00;;;;;14.09;48.32;100397.31;5033468;28;45391;-72
2022/03/11 09:43:01;;;;;;;;;5.50;4.75;;;;;14.11;48.13;100380.34;5033382;28;46162;-73
2022/03/11 09:45:27;;;;;;;;;7.75;6.00;;;;;13.79;47.38;100305.84;5033135;28;45276;-73
2022/03/11 09:47:53;;;;;;;;;9.50;7.50;;;;;14.40;47.30;100373.31;5048665;28;45609;-73
2022/03/11 09:50:19;;;;;;;;;5.00;5.00;;;;;14.46;46.74;100382.31;5033731;28;45459;-73
2022/03/11 09:52:47;;;;;;;;;6.25;5.75;;;;;14.53;46.75;100378.75;5033144;28;45489;-73
2022/03/11 09:55:12;;;;;;;;;6.50;6.50;;;;;14.52;46.76;100384.16;5033193;28;45445;-72
2022/03/11 09:57:38;;;;;;;;;12.00;10.00;;;;;14.34;46.45;100345.53;5032422;28;45551;-73
2022/03/11 10:00:05;;;;;;;;;15.50;11.50;;;;;14.57;46.61;100367.13;5032866;28;45450;-73
2022/03/11 10:02:30;;;;;;;;;5.50;4.50;;;;;14.60;46.36;100363.59;5032401;28;46379;-72
2022/03/11 10:04:58;;;;;;;;;6.25;4.25;;;;;14.69;46.11;100368.09;5032555;28;45304;-74
2022/03/11 10:07:28;;;;;;;;;5.00;3.50;;;;;14.67;45.75;100364.53;5049221;28;45467;-72
2022/03/11 10:09:55;;;;;;;;;8.25;7.75;;;;;14.52;46.01;100323.19;5036670;28;45465;-72
2022/03/11 10:12:26;;;;;;;;;9.50;8.50;;;;;14.67;45.94;100351.06;5036408;28;46626;-74
2022/03/11 10:15:11;;;;;;;;;9.75;8.50;;;;;14.41;47.50;100256.88;5036408;28;45564;-73
2022/03/11 10:17:44;;;;;;;;;6.25;5.25;;;;;14.65;49.23;100321.50;5048356;28;45534;-73
2022/03/11 10:20:12;;;;;;;;;7.75;5.25;;;;;14.41;50.11;100318.69;5036803;28;45410;-73
2022/03/11 10:22:42;;;;;;;;;9.00;6.00;;;;;14.09;50.00;100287.19;5035626;28;47059;-73
2022/03/11 10:25:13;;;;;;;;;9.75;6.00;;;;;14.31;50.43;100344.63;5036284;28;45400;-72
2022/03/11 10:27:57;;;;;;;;;16.00;14.25;;;;;14.48;49.64;100342.00;5036538;28;45409;-73
2022/03/11 10:30:24;;;;;;;;;19.50;16.50;;;;;14.57;50.55;100332.19;5049552;28;45543;-73
2022/03/11 10:32:53;;;;;;;;;5.00;5.00;;;;;14.70;50.77;100327.78;5054920;28;47096;-73
2022/03/11 10:35:19;;;;;;;;;7.25;7.25;;;;;14.90;49.21;100338.56;5071131;28;45403;-73
2022/03/11 10:38:07;;;;;;;;;7.25;6.00;;;;;15.01;48.12;100327.81;5056064;28;45531;-73
2022/03/11 10:40:34;;;;;;;;;7.00;7.00;;;;;15.05;48.52;100326.06;5055835;28;45647;-73
2022/03/11 10:43:18;;;;;;;;;6.00;6.00;;;;;14.99;47.87;100339.50;5055501;28;45499;-72
2022/03/11 10:45:50;;;;;;;;;4.75;4.00;;;;;15.14;47.83;100378.97;5054512;28;45449;-72
2022/03/11 10:48:18;;;;;;;;;11.75;10.25;;;;;14.91;47.75;100348.44;5055121;28;45587;-74
2022/03/11 10:50:44;;;;;;;;;7.75;7.75;;;;;15.05;47.29;100364.59;5055004;28;45417;-74
2022/03/11 10:53:11;;;;;;;;;9.50;9.50;;;;;15.06;47.97;100357.44;5054724;28;46031;-74
2022/03/11 10:55:39;;;;;;;;;9.00;7.00;;;;;15.11;48.22;100326.03;5054889;28;45286;-73
2022/03/11 10:58:06;;;;;;;;;8.25;6.25;;;;;15.10;49.08;100326.94;5055485;28;45578;-74
2022/03/11 11:00:37;;;;;;;;;6.50;5.00;;;;;14.99;49.66;100339.50;5055743;28;45540;-71
2022/03/11 11:03:07;;;;;;;;;7.00;5.00;;;;;14.96;49.64;100361.00;5054552;28;45433;-73
2022/03/11 11:05:33;;;;;;;;;10.00;7.50;;;;;14.92;50.75;100377.13;5054726;28;45516;-73
2022/03/11 11:08:01;;;;;;;;;12.25;8.75;;;;;14.96;51.06;100375.34;5055491;28;45355;-73
2022/03/11 11:10:29;;;;;;;;;12.75;12.75;;;;;14.98;50.94;100383.41;5056029;28;45487;-74